This is the latest recevied weather packets stored in our database for station/object KE4LOJ. If no packets are shown the sender has not sent any weather packets the latest 10 day(s).
| Time | Temp. | Humidity | Pressure | Rain* | Wind** | Luminosity | Snow |
|---|---|---|---|---|---|---|---|
| 1778084724 | 30.56° C | 48% | 1018.1 hPa | 0 mm | - | 790 W/m² | - |
| 1778084421 | 30.56° C | 48% | 1018.2 hPa | 0 mm | - | 715 W/m² | - |
| 1778079984 | 27.78° C | 61% | 1018.1 hPa | 0 mm | - | 630 W/m² | - |
| 1778079681 | 27.78° C | 61% | 1018.1 hPa | 0 mm | - | 630 W/m² | - |
| 1778079378 | 28.33° C | 61% | 1018.2 hPa | 0 mm | - | 615 W/m² | - |
| 1778079074 | 28.33° C | 62% | 1018.1 hPa | 0 mm | - | 595 W/m² | - |
| 1778078772 | 28.33° C | 63% | 1018.1 hPa | 0 mm | - | 582 W/m² | - |
| 1778078468 | 27.78° C | 64% | 1018.1 hPa | 0 mm | - | 550 W/m² | - |
| 1778078166 | 28.33° C | 66% | 1018 hPa | 0 mm | - | 529 W/m² | - |
| 1778077864 | 28.33° C | 66% | 1018 hPa | 0 mm | - | 526 W/m² | - |
| 1778077562 | 27.78° C | 67% | 1017.9 hPa | 0 mm | - | 536 W/m² | - |
| 1778077260 | 26.67° C | 71% | 1017.9 hPa | 0 mm | - | 515 W/m² | - |
| 1778076957 | 26.67° C | 71% | 1018 hPa | 0 mm | - | 468 W/m² | - |
| 1778076655 | 26.67° C | 72% | 1018.1 hPa | 0 mm | - | 380 W/m² | - |
| 1778076353 | 26.67° C | 74% | 1017.9 hPa | 0 mm | - | 159 W/m² | - |
| 1778076050 | 26.11° C | 75% | 1017.8 hPa | 0 mm | - | 124 W/m² | - |
| 1778075746 | 25.56° C | 76% | 1018 hPa | 0 mm | - | 131 W/m² | - |
| 1778075442 | 25.56° C | 77% | 1018 hPa | 0 mm | - | 118 W/m² | - |
| 1778075139 | 25° C | 79% | 1017.9 hPa | 0 mm | - | 181 W/m² | - |
| 1778074835 | 25.56° C | 78% | 1018.1 hPa | 0 mm | - | 135 W/m² | - |
| 1778074532 | 25° C | 79% | 1017.9 hPa | 0 mm | - | 113 W/m² | - |
| 1778074229 | 25° C | 79% | 1018 hPa | 0 mm | - | 119 W/m² | - |
| 1778073926 | 25° C | 80% | 1018 hPa | 0 mm | - | 124 W/m² | - |
| 1778073624 | 24.44° C | 81% | 1018.2 hPa | 0 mm | - | 121 W/m² | - |
| 1778073321 | 23.89° C | 82% | 1018 hPa | 0 mm | - | 133 W/m² | - |
* Rain latest hour (hover to see other rain measurements)
** Current wind speed in m/s (hover to see current wind gust speed)